AQQ10 IFIS: Internet Flight Information System
logo dgac
Viernes 18 de Junio del 2021
Buscar por aerodromo o helipuerto
Ingrese nombre de aeródromo, localidad o designador OACI:
METAR del 18-06-2021 a las 22:00 UTC
Para mayor información visite www.meteochile.cl
METAR SCRG 182200Z 20006KT 4000 HZ NSC 10/06 Q1020
Viento: dirección 200 grados, velocidad 6 nudos
Visibilidad: 4000 metros
Bruma
Sin nubes bajo los 5000 pies o bajo del MSA (Mínimo de Seguridad del Aeródromo)
Temperatura: 10 °C
Rocío: 6 °C
Humedad_relativa: 76%
Presión: 1020 hPa
METAR del 18-06-2021 a las 22:00 UTC
Para mayor información visite www.meteochile.cl
METAR SCRG 182200Z 20006KT 4000 HZ NSC 10/06 Q1020
Viento: dirección 200 grados, velocidad 6 nudos
Visibilidad: 4000 metros
Bruma
Sin nubes bajo los 5000 pies o bajo del MSA (Mínimo de Seguridad del Aeródromo)
Temperatura: 10 °C
Rocío: 6 °C
Humedad_relativa: 76%
Presión: 1020 hPa
METAR del 18-06-2021 a las 21:00 UTC
Para mayor información visite www.meteochile.cl
METAR SCRG 182100Z 20006KT 4000 HZ NSC 12/07 Q1019
Viento: dirección 200 grados, velocidad 6 nudos
Visibilidad: 4000 metros
Bruma
Sin nubes bajo los 5000 pies o bajo del MSA (Mínimo de Seguridad del Aeródromo)
Temperatura: 12 °C
Rocío: 7 °C
Humedad_relativa: 71%
Presión: 1019 hPa
METAR del 18-06-2021 a las 20:00 UTC
Para mayor información visite www.meteochile.cl
METAR SCRG 182000Z 20007KT 5000 HZ NSC 14/07 Q1018
Viento: dirección 200 grados, velocidad 7 nudos
Visibilidad: 5000 metros
Bruma
Sin nubes bajo los 5000 pies o bajo del MSA (Mínimo de Seguridad del Aeródromo)
Temperatura: 14 °C
Rocío: 7 °C
Humedad_relativa: 63%
Presión: 1018 hPa
METAR del 18-06-2021 a las 19:00 UTC
Para mayor información visite www.meteochile.cl
METAR SCRG 181900Z 22007KT 6000 NSC 16/07 Q1018
Viento: dirección 220 grados, velocidad 7 nudos
Visibilidad: 6000 metros
Sin nubes bajo los 5000 pies o bajo del MSA (Mínimo de Seguridad del Aeródromo)
Temperatura: 16 °C
Rocío: 7 °C
Humedad_relativa: 55%
Presión: 1018 hPa
METAR del 18-06-2021 a las 18:00 UTC
Para mayor información visite www.meteochile.cl
METAR SCRG 181800Z 25003KT 6000 NSC 16/06 Q1017
Viento: dirección 250 grados, velocidad 3 nudos
Visibilidad: 6000 metros
Sin nubes bajo los 5000 pies o bajo del MSA (Mínimo de Seguridad del Aeródromo)
Temperatura: 16 °C
Rocío: 6 °C
Humedad_relativa: 51%
Presión: 1017 hPa
METAR del 18-06-2021 a las 17:00 UTC
Para mayor información visite www.meteochile.cl
METAR SCRG 181700Z 31001KT 6000 NSC 15/06 Q1018
Viento: dirección 310 grados, velocidad 1 nudos
Visibilidad: 6000 metros
Sin nubes bajo los 5000 pies o bajo del MSA (Mínimo de Seguridad del Aeródromo)
Temperatura: 15 °C
Rocío: 6 °C
Humedad_relativa: 55%
Presión: 1018 hPa
METAR del 18-06-2021 a las 16:00 UTC
Para mayor información visite www.meteochile.cl
METAR SCRG 181600Z 03001KT 5000 HZ NSC 13/05 Q1018
Viento: dirección 030 grados, velocidad 1 nudos
Visibilidad: 5000 metros
Bruma
Sin nubes bajo los 5000 pies o bajo del MSA (Mínimo de Seguridad del Aeródromo)
Temperatura: 13 °C
Rocío: 5 °C
Humedad_relativa: 58%
Presión: 1018 hPa
METAR del 18-06-2021 a las 15:00 UTC
Para mayor información visite www.meteochile.cl
METAR SCRG 181500Z 02003KT 5000 HZ NSC 09/04 Q1018
Viento: dirección 020 grados, velocidad 3 nudos
Visibilidad: 5000 metros
Bruma
Sin nubes bajo los 5000 pies o bajo del MSA (Mínimo de Seguridad del Aeródromo)
Temperatura: 9 °C
Rocío: 4 °C
Humedad_relativa: 71%
Presión: 1018 hPa
METAR del 18-06-2021 a las 14:00 UTC
Para mayor información visite www.meteochile.cl
METAR SCRG 181400Z 02004KT 5000 HZ NSC 07/02 Q1017
Viento: dirección 020 grados, velocidad 4 nudos
Visibilidad: 5000 metros
Bruma
Sin nubes bajo los 5000 pies o bajo del MSA (Mínimo de Seguridad del Aeródromo)
Temperatura: 7 °C
Rocío: 2 °C
Humedad_relativa: 70%
Presión: 1017 hPa